createdAt,value
2023-01-17T00:02:32.126Z,0.06
2023-01-17T00:05:33.828Z,0.09
2023-01-17T00:08:35.363Z,0.17
2023-01-17T00:11:37.026Z,0.17
2023-01-17T00:14:38.658Z,0.24
2023-01-17T00:17:40.230Z,0.26
2023-01-17T00:20:41.883Z,0.28
2023-01-17T00:23:43.562Z,0.28
2023-01-17T00:26:45.317Z,0.25
2023-01-17T00:29:46.894Z,0.12
2023-01-17T00:32:48.557Z,-0.09
2023-01-17T00:35:51.736Z,-0.24
2023-01-17T00:38:53.341Z,-0.27
2023-01-17T00:41:55.084Z,-0.37
2023-01-17T00:44:56.738Z,-0.42
2023-01-17T00:47:58.384Z,-0.47
2023-01-17T00:51:03.437Z,-0.42
2023-01-17T00:54:05.749Z,-0.41
2023-01-17T00:57:07.774Z,-0.40
2023-01-17T01:00:10.772Z,-0.39
2023-01-17T01:03:12.502Z,-0.43
2023-01-17T01:06:14.148Z,-0.51
2023-01-17T01:09:15.832Z,-0.26
2023-01-17T01:12:17.577Z,-0.11
2023-01-17T01:15:19.255Z,0.08
2023-01-17T01:18:20.999Z,0.21
2023-01-17T01:21:22.685Z,0.33
2023-01-17T01:24:24.244Z,0.34
2023-01-17T01:27:25.822Z,0.38
2023-01-17T01:30:27.466Z,0.44
2023-01-17T01:33:29.006Z,0.43
2023-01-17T01:36:30.634Z,0.34
2023-01-17T01:39:32.202Z,0.28
2023-01-17T01:42:33.806Z,0.08
2023-01-17T01:45:35.731Z,0.02
2023-01-17T01:48:45.398Z,-0.04
2023-01-17T01:51:59.860Z,-0.12
2023-01-17T01:55:07.297Z,-0.18
2023-01-17T01:58:14.964Z,-0.28
2023-01-17T02:01:17.527Z,-0.42
2023-01-17T02:04:20.576Z,-0.50
2023-01-17T02:07:28.608Z,-0.56
2023-01-17T02:10:35.594Z,-0.52
2023-01-17T02:13:37.232Z,-0.41
2023-01-17T02:17:09.161Z,-0.46
2023-01-17T02:20:28.907Z,-0.53
2023-01-17T02:24:00.759Z,-0.56
2023-01-17T02:27:17.644Z,-0.61
2023-01-17T02:30:32.062Z,-0.63
2023-01-17T02:33:50.412Z,-0.75
2023-01-17T02:37:01.562Z,-0.79
2023-01-17T02:40:10.705Z,-0.84
2023-01-17T02:43:15.220Z,-0.72
2023-01-17T02:46:17.379Z,-0.68
2023-01-17T02:49:22.282Z,-0.53
2023-01-17T02:52:37.381Z,-0.46
2023-01-17T02:56:01.471Z,-0.31
2023-01-17T02:59:16.678Z,-0.18
2023-01-17T03:02:38.335Z,-0.31
2023-01-17T03:05:46.292Z,-0.41
2023-01-17T03:08:50.638Z,-0.60
2023-01-17T03:11:52.989Z,-0.81
2023-01-17T03:14:54.668Z,-0.94
2023-01-17T03:18:00.837Z,-1.06
2023-01-17T03:21:05.241Z,-1.06
2023-01-17T03:24:07.076Z,-0.98
2023-01-17T03:27:08.831Z,-0.68
2023-01-17T03:30:11.571Z,-0.41
2023-01-17T03:33:16.969Z,-0.25
2023-01-17T03:36:18.645Z,-0.24
2023-01-17T03:39:20.313Z,-0.30
2023-01-17T03:42:22.073Z,-0.42
2023-01-17T03:45:26.078Z,-0.47
2023-01-17T03:48:27.735Z,-0.49
2023-01-17T03:51:29.398Z,-0.54
2023-01-17T03:54:49.704Z,-0.56
2023-01-17T03:57:51.431Z,-0.76
2023-01-17T04:01:38.391Z,-1.01
2023-01-17T04:04:40.221Z,-1.16
2023-01-17T04:07:41.968Z,-1.28
2023-01-17T04:10:43.771Z,-1.34
2023-01-17T04:13:45.653Z,-1.48
2023-01-17T04:16:47.554Z,-1.70
2023-01-17T04:19:49.599Z,-1.81
2023-01-17T04:22:53.405Z,-1.91
2023-01-17T04:25:57.491Z,-1.89
2023-01-17T04:28:59.213Z,-1.97
2023-01-17T04:32:00.980Z,-2.03
2023-01-17T04:35:02.814Z,-1.88
2023-01-17T04:38:06.771Z,-1.64
2023-01-17T04:41:08.528Z,-1.43
2023-01-17T04:44:10.280Z,-1.41
2023-01-17T04:47:11.944Z,-1.42
2023-01-17T04:50:13.750Z,-1.47
2023-01-17T04:53:15.576Z,-1.43
2023-01-17T04:56:17.544Z,-1.41
2023-01-17T04:59:19.390Z,-1.42
2023-01-17T05:02:24.249Z,-1.49
2023-01-17T05:05:25.934Z,-1.37
2023-01-17T05:08:27.768Z,-1.29
2023-01-17T05:11:29.699Z,-1.21
2023-01-17T05:14:33.839Z,-1.13
2023-01-17T05:17:38.085Z,-1.03
2023-01-17T05:20:39.989Z,-0.99
2023-01-17T05:23:41.981Z,-0.95
2023-01-17T05:26:43.887Z,-0.89
2023-01-17T05:29:49.065Z,-0.95
2023-01-17T05:32:56.262Z,-0.96
2023-01-17T05:35:58.435Z,-0.94
2023-01-17T05:39:02.895Z,-0.97
2023-01-17T05:42:04.895Z,-0.97
2023-01-17T05:45:07.709Z,-0.89
2023-01-17T05:48:09.581Z,-1.01
2023-01-17T05:51:11.347Z,-1.02
2023-01-17T05:54:15.916Z,-1.12
2023-01-17T05:57:21.988Z,-1.31
2023-01-17T06:00:24.145Z,-1.22
2023-01-17T06:03:28.406Z,-1.17
2023-01-17T06:06:36.032Z,-1.21
2023-01-17T06:10:04.304Z,-1.34
2023-01-17T06:13:15.381Z,-1.42
2023-01-17T06:16:17.198Z,-1.58
2023-01-17T06:19:33.380Z,-1.73
2023-01-17T06:22:44.152Z,-1.76
2023-01-17T06:25:50.501Z,-1.64
2023-01-17T06:28:52.399Z,-1.77
2023-01-17T06:31:56.451Z,-1.63
2023-01-17T06:34:58.321Z,-1.58
2023-01-17T06:38:00.206Z,-1.71
2023-01-17T06:41:06.257Z,-1.79
2023-01-17T06:44:11.312Z,-1.94
2023-01-17T06:47:12.989Z,-1.86
2023-01-17T06:50:17.754Z,-1.73
2023-01-17T06:53:26.878Z,-1.66
2023-01-17T06:56:34.546Z,-1.60
2023-01-17T07:04:12.532Z,-1.57
2023-01-17T07:12:22.343Z,-1.61
2023-01-17T08:03:21.556Z,-2.04
2023-01-17T08:07:09.641Z,-1.97
2023-01-17T08:10:48.833Z,-2.00
2023-01-17T08:14:15.767Z,-1.83
2023-01-17T08:17:19.715Z,-1.63
2023-01-17T08:20:27.555Z,-1.74
2023-01-17T08:23:37.319Z,-1.62
2023-01-17T08:26:47.616Z,-1.60
2023-01-17T08:30:01.384Z,-1.73
2023-01-17T08:33:10.721Z,-1.76
2023-01-17T08:36:53.458Z,-1.65
2023-01-17T08:39:55.425Z,-1.74
2023-01-17T08:42:59.282Z,-1.75
2023-01-17T08:46:03.508Z,-1.83
2023-01-17T08:49:13.279Z,-1.74
2023-01-17T08:52:18.464Z,-1.66
2023-01-17T08:55:22.162Z,-1.44
2023-01-17T08:58:31.010Z,-1.15
2023-01-17T09:01:33.194Z,-0.98
2023-01-17T09:04:40.707Z,-0.90
2023-01-17T09:07:48.534Z,-0.80
2023-01-17T09:10:56.152Z,-0.77
2023-01-17T09:14:06.918Z,-0.62
2023-01-17T09:17:22.509Z,-0.48
2023-01-17T09:20:26.875Z,-0.45
2023-01-17T09:23:47.332Z,-0.52
2023-01-17T09:26:49.038Z,-0.44
2023-01-17T09:29:50.832Z,-0.43
2023-01-17T09:32:54.003Z,-0.41
2023-01-17T09:36:14.916Z,-0.45
2023-01-17T09:39:16.910Z,-0.41
2023-01-17T09:42:36.061Z,-0.48
2023-01-17T09:45:38.910Z,-0.48
2023-01-17T09:48:44.233Z,-0.33
2023-01-17T09:52:14.855Z,-0.20
2023-01-17T09:55:51.173Z,-0.12
2023-01-17T10:00:02.995Z,-0.01
2023-01-17T10:03:28.097Z,0.08
2023-01-17T10:06:44.311Z,0.12
2023-01-17T10:10:10.132Z,0.11
2023-01-17T10:13:11.778Z,0.13
2023-01-17T10:16:53.381Z,0.27
2023-01-17T10:20:34.374Z,0.39
2023-01-17T10:24:20.519Z,0.57
2023-01-17T10:28:21.341Z,0.65
2023-01-17T10:32:01.804Z,0.65
2023-01-17T10:36:07.229Z,0.53
2023-01-17T10:39:23.856Z,0.44
2023-01-17T10:42:56.008Z,0.41
2023-01-17T10:46:01.631Z,0.30
2023-01-17T10:49:14.127Z,0.26
2023-01-17T10:59:42.822Z,0.19
2023-01-17T11:02:50.577Z,0.16
2023-01-17T11:06:23.569Z,0.23
2023-01-17T11:09:44.500Z,0.25
2023-01-17T11:12:54.134Z,0.39
2023-01-17T11:16:07.812Z,0.75
2023-01-17T11:19:30.373Z,1.30
2023-01-17T11:22:32.633Z,1.62
2023-01-17T11:25:36.187Z,1.93
2023-01-17T11:28:56.995Z,2.15
2023-01-17T11:32:22.198Z,2.01
2023-01-17T11:35:29.127Z,1.83
2023-01-17T11:38:57.869Z,1.70
2023-01-17T11:43:00.512Z,1.76
2023-01-17T11:46:19.028Z,1.84
2023-01-17T11:49:34.542Z,1.83
2023-01-17T11:52:47.453Z,1.90
2023-01-17T11:56:32.187Z,1.99
2023-01-17T12:03:53.824Z,2.08
2023-01-17T12:08:09.097Z,2.25
2023-01-17T12:12:28.548Z,2.37
2023-01-17T12:29:35.935Z,3.43
2023-01-17T13:15:52.304Z,3.13
2023-01-17T13:19:02.171Z,3.09
2023-01-17T13:22:16.704Z,3.40
2023-01-17T13:25:37.666Z,3.71
2023-01-17T13:33:37.309Z,4.08
2023-01-17T13:37:19.986Z,4.26
2023-01-17T13:49:58.364Z,4.20
2023-01-17T14:01:05.288Z,3.45
2023-01-17T14:04:09.367Z,3.35
2023-01-17T14:07:40.121Z,3.21
2023-01-17T14:10:45.186Z,3.23
2023-01-17T14:13:52.773Z,3.11
2023-01-17T14:16:55.220Z,3.14
2023-01-17T14:20:40.849Z,3.15
2023-01-17T14:29:50.645Z,3.00
2023-01-17T14:33:33.431Z,2.95
2023-01-17T14:37:36.236Z,2.84
2023-01-17T14:45:44.211Z,2.75
2023-01-17T14:50:53.016Z,2.56
2023-01-17T14:54:56.517Z,2.51
2023-01-17T14:57:58.189Z,2.39
2023-01-17T15:01:25.718Z,2.29
2023-01-17T15:04:33.468Z,2.18
2023-01-17T15:08:18.465Z,1.98
2023-01-17T15:11:26.074Z,1.66
2023-01-17T15:14:33.294Z,1.54
2023-01-17T15:17:35.016Z,1.44
2023-01-17T15:20:38.092Z,1.32
2023-01-17T15:28:13.214Z,0.98
2023-01-17T15:31:18.497Z,0.78
2023-01-17T15:34:30.572Z,0.50
2023-01-17T15:37:39.194Z,0.36
2023-01-17T15:40:48.247Z,0.14
2023-01-17T15:44:20.598Z,-0.14
2023-01-17T15:48:42.243Z,-0.47
2023-01-17T15:51:56.221Z,-0.80
2023-01-17T15:55:18.027Z,-0.94
2023-01-17T15:58:46.660Z,-1.16
2023-01-17T16:01:55.385Z,-1.28
2023-01-17T16:05:02.884Z,-1.35
2023-01-17T16:08:07.845Z,-1.28
2023-01-17T16:11:17.967Z,-1.38
2023-01-17T16:14:51.353Z,-1.37
2023-01-17T16:18:06.173Z,-1.41
2023-01-17T16:21:23.713Z,-1.42
2023-01-17T16:24:29.658Z,-1.34
2023-01-17T16:27:38.706Z,-1.25
2023-01-17T16:30:40.402Z,-1.09
2023-01-17T16:33:42.177Z,-1.21
2023-01-17T16:36:43.688Z,-1.21
2023-01-17T16:39:50.962Z,-1.31
2023-01-17T16:42:53.282Z,-1.50
2023-01-17T16:45:55.021Z,-1.38
2023-01-17T16:48:59.409Z,-1.49
2023-01-17T16:52:01.074Z,-1.63
2023-01-17T16:55:04.542Z,-1.74
2023-01-17T16:58:09.403Z,-1.82
2023-01-17T17:01:16.227Z,-1.77
2023-01-17T17:04:18.329Z,-1.88
2023-01-17T17:07:20.253Z,-1.77
2023-01-17T17:10:22.389Z,-1.81
2023-01-17T17:13:24.062Z,-1.96
2023-01-17T17:16:28.042Z,-2.04
2023-01-17T17:19:29.614Z,-2.22
2023-01-17T17:22:31.218Z,-2.24
2023-01-17T17:25:50.347Z,-2.29
2023-01-17T17:29:17.392Z,-2.07
2023-01-17T17:32:24.960Z,-1.90
2023-01-17T17:35:29.246Z,-1.86
2023-01-17T17:38:35.544Z,-1.77
2023-01-17T17:41:55.448Z,-1.97
2023-01-17T17:45:01.934Z,-2.19
2023-01-17T17:48:03.657Z,-2.30
2023-01-17T17:51:06.907Z,-2.36
2023-01-17T17:54:13.335Z,-2.43
2023-01-17T18:00:56.302Z,-2.58
2023-01-17T18:04:02.776Z,-2.59
2023-01-17T18:07:04.430Z,-2.65
2023-01-17T18:10:07.673Z,-2.68
2023-01-17T18:13:14.173Z,-2.80
2023-01-17T18:16:25.211Z,-2.65
2023-01-17T18:19:26.848Z,-2.53
2023-01-17T18:22:28.400Z,-2.35
2023-01-17T18:25:30.008Z,-2.16
2023-01-17T18:28:38.942Z,-2.10
2023-01-17T18:31:45.279Z,-1.97
2023-01-17T18:34:46.926Z,-1.86
2023-01-17T18:37:48.455Z,-1.79
2023-01-17T18:40:55.952Z,-1.67
2023-01-17T18:44:00.357Z,-1.91
2023-01-17T18:47:08.166Z,-1.93
2023-01-17T18:50:10.169Z,-2.02
2023-01-17T18:53:11.706Z,-1.99
2023-01-17T18:56:17.796Z,-1.84
2023-01-17T18:59:28.369Z,-1.76
2023-01-17T19:02:37.595Z,-1.77
2023-01-17T19:05:39.172Z,-1.50
2023-01-17T19:08:41.436Z,-1.46
2023-01-17T19:11:43.376Z,-1.44
2023-01-17T19:14:55.406Z,-1.53
2023-01-17T19:18:15.226Z,-1.51
2023-01-17T19:21:29.467Z,-1.35
2023-01-17T19:24:33.940Z,-1.35
2023-01-17T19:27:41.084Z,-1.04
2023-01-17T19:30:50.010Z,-0.96
2023-01-17T19:34:01.298Z,-0.98
2023-01-17T19:37:14.717Z,-1.03
2023-01-17T19:40:25.709Z,-1.01
2023-01-17T19:43:27.218Z,-0.96
2023-01-17T19:46:29.472Z,-0.98
2023-01-17T19:50:02.033Z,-0.98
2023-01-17T19:53:37.205Z,-1.07
2023-01-17T19:56:38.796Z,-1.11
2023-01-17T19:59:40.451Z,-1.19
2023-01-17T20:02:42.036Z,-1.38
2023-01-17T20:05:43.642Z,-1.46
2023-01-17T20:08:49.324Z,-1.60
2023-01-17T20:11:51.278Z,-1.62
2023-01-17T20:14:53.062Z,-1.79
2023-01-17T20:17:57.490Z,-1.83
2023-01-17T20:21:07.408Z,-1.78
2023-01-17T20:24:14.178Z,-1.70
2023-01-17T20:27:23.777Z,-1.62
2023-01-17T20:30:26.008Z,-1.68
2023-01-17T20:33:27.811Z,-1.87
2023-01-17T20:36:29.609Z,-1.89
2023-01-17T20:39:31.285Z,-1.79
2023-01-17T20:42:38.523Z,-1.62
2023-01-17T20:45:40.074Z,-1.69
2023-01-17T20:48:56.275Z,-1.57
2023-01-17T20:51:58.310Z,-1.48
2023-01-17T20:54:59.992Z,-1.50
2023-01-17T20:58:01.934Z,-1.64
2023-01-17T21:01:05.285Z,-1.64
2023-01-17T21:04:11.137Z,-1.52
2023-01-17T21:07:12.900Z,-1.50
2023-01-17T21:10:14.805Z,-1.39
2023-01-17T21:13:16.490Z,-1.44
2023-01-17T21:16:20.301Z,-1.54
2023-01-17T21:19:22.990Z,-1.55
2023-01-17T21:22:24.627Z,-1.58
2023-01-17T21:25:29.478Z,-1.66
2023-01-17T21:28:34.472Z,-1.71
2023-01-17T21:31:38.070Z,-1.64
2023-01-17T21:34:39.782Z,-1.67
2023-01-17T21:37:42.580Z,-1.74
2023-01-17T21:40:59.295Z,-1.76
2023-01-17T21:44:13.481Z,-1.77
2023-01-17T21:47:22.763Z,-1.59
2023-01-17T21:50:33.253Z,-1.66
2023-01-17T21:53:40.481Z,-1.67
2023-01-17T21:56:45.486Z,-1.62
2023-01-17T21:59:50.442Z,-1.80
2023-01-17T22:02:53.306Z,-1.77
2023-01-17T22:05:55.627Z,-2.02
2023-01-17T22:09:07.207Z,-2.10
2023-01-17T22:12:09.023Z,-2.28
2023-01-17T22:15:14.174Z,-2.44
2023-01-17T22:18:18.526Z,-2.62
2023-01-17T22:21:25.532Z,-2.85
2023-01-17T22:24:29.503Z,-3.04
2023-01-17T22:27:33.215Z,-3.15
2023-01-17T22:30:45.230Z,-3.32
2023-01-17T22:33:59.591Z,-3.46
2023-01-17T22:37:01.570Z,-3.57
2023-01-17T22:40:03.638Z,-3.66
2023-01-17T22:43:05.538Z,-3.71
2023-01-17T22:46:10.025Z,-3.78
2023-01-17T22:49:15.984Z,-3.82
2023-01-17T22:52:18.023Z,-3.84
2023-01-17T22:55:19.826Z,-3.77
2023-01-17T22:58:27.059Z,-3.73
2023-01-17T23:01:31.155Z,-3.73
2023-01-17T23:04:35.483Z,-3.58
2023-01-17T23:07:37.895Z,-3.62
2023-01-17T23:10:42.121Z,-3.78
2023-01-17T23:13:46.978Z,-3.82
2023-01-17T23:16:59.905Z,-3.64
2023-01-17T23:20:01.903Z,-3.53
2023-01-17T23:23:03.700Z,-3.33
2023-01-17T23:26:05.643Z,-3.29
2023-01-17T23:29:07.461Z,-3.34
2023-01-17T23:32:09.300Z,-3.33
2023-01-17T23:35:11.301Z,-3.38
2023-01-17T23:38:17.210Z,-3.23
2023-01-17T23:41:18.761Z,-3.31
2023-01-17T23:44:23.162Z,-3.49
2023-01-17T23:47:24.768Z,-3.55
2023-01-17T23:50:26.697Z,-3.62
2023-01-17T23:53:28.447Z,-3.55
2023-01-17T23:56:30.185Z,-3.37
2023-01-17T23:59:32.166Z,-3.35
